Pagina principale
METAR-TAF:

METAR-TAF

Aeroporti :

Hamadan, Iran

latitudine: 34-52-05N, longitudine: 048-33-08E, altezza: 1757 m

Osservazione

Il bollettino è stato emesso 29 minuti fa, alle 07:00 UTC
Vento 4 kt da nord
Temperature 29°C
Umidità 14%
Pressione 1022 hPa
Visibilità 10 km o più
Poco nuvoloso ad un'altezza di 4000 ft

METAR: OIHH 200700Z 01004KT 9999 FEW040 29/M01 Q1022

Ora: 11:59 (07:29 UTC)


TAF: mancante

Osservazioni e previsioni meteorologiche di più di 4000 aeroporti (messaggi METAR e TAF).

Le stazioni disponibili sono rappresentate dai dischi gialli e rossi sulla carta.

Puntare il mouse per vedere il nome della stazione.

Clicca sopra per visualizzare le osservazioni e previsioni meteorologiche.

Per cambiare la mappa : fare clic sui pulsanti verdi con una croce nera per ingrandire, il pulsante verde con un trattino per diminuire, o sulla freccia verde per le mappe adiacenti.


METAR-TAF: